Crawfordsville, Iowa
Current Conditions -  °F | °C
As of 5:55 PM on Monday 22 Dec 2014 (Local Time) from KAWG Reporting Station
Unknown Precip Unknown Precip  
Wind Chill:   Ceiling: 200
Heat Index:   Visibility: 0.25mi
Dew Point:   Wind: 10mph
Humidity: 100%   Direction: 110°ESE
Pressure: 29.51"   Gusts: NA
Location:  41.24°N, 91.56°W
Report Text: KAWG 222355Z AUTO 11009KT 1/4SM -UP OVC002 04/04 A2951 RMK AO2
Loading
Personal Weather Stations






























Interactive Weather Map New forecast layout! Learn more

10-Day Weather Forecast

Advertisements
Track Severe Weather on mobile